Abbot, Maine
Current Conditions -  °F | °C
As of 2:35 PM on Saturday 25 Oct 2014 (Local Time) from KWVL Reporting Station
Clear Clear  
Wind Chill: 63°   Ceiling: Unl
Heat Index: 63°   Visibility: 10mi
Dew Point: 37°   Wind: 0mph
Humidity: 39%   Direction: NA
Pressure: 29.54"   Gusts: NA
Location:  44.94°N, 69.7°W
Report Text: KWVL 251835Z 00000KT 10SM CLR 17/03 A2954 RMK AO1
Loading
Personal Weather Stations






























Interactive Weather Map New forecast layout! Learn more

10-Day Weather Forecast

Advertisements
Track Severe Weather on mobile